Time;durP1;ratioP1;P1;durP2;ratioP2;P2;SDS_P1;SDS_P2;PMS_P1;PMS_P2;Temp;Humidity;BMP_temperature;BMP_pressure;BME280_temperature;BME280_humidity;BME280_pressure;Samples;Min_cycle;Max_cycle;Signal;HPM_P1;HPM_P2
2023/09/23 00:01:05;;;;;;;21.73;14.73;;;19.10;79.00;;;;;;4849283;29;20129;-92
2023/09/23 00:03:33;;;;;;;21.77;15.50;;;19.10;78.60;;;;;;4864113;29;20063;-92
2023/09/23 00:06:02;;;;;;;21.58;14.73;;;19.00;78.90;;;;;;4849181;29;20168;-94
2023/09/23 00:08:29;;;;;;;21.50;13.70;;;19.00;78.70;;;;;;4864353;29;20476;-93
2023/09/23 00:10:56;;;;;;;21.80;14.75;;;19.10;78.40;;;;;;4864114;29;20077;-94
2023/09/23 00:13:25;;;;;;;21.02;15.07;;;19.10;77.80;;;;;;4849030;29;20073;-94
2023/09/23 00:15:52;;;;;;;23.55;15.20;;;19.00;77.80;;;;;;4863772;29;20140;-94
2023/09/23 00:18:19;;;;;;;22.48;15.05;;;18.90;77.90;;;;;;4848786;29;20504;-93
2023/09/23 00:20:47;;;;;;;24.47;16.33;;;18.80;78.10;;;;;;4848678;29;20496;-94
2023/09/23 00:23:15;;;;;;;26.55;17.00;;;18.70;77.90;;;;;;4849245;29;20050;-95
2023/09/23 00:25:44;;;;;;;22.55;15.35;;;18.50;78.20;;;;;;4864478;29;20053;-95
2023/09/23 00:28:12;;;;;;;20.73;13.65;;;18.20;78.70;;;;;;4849797;29;20069;-94
2023/09/23 00:30:40;;;;;;;17.65;12.90;;;18.10;79.00;;;;;;4848745;29;20458;-93
2023/09/23 00:33:07;;;;;;;17.00;11.77;;;18.00;79.20;;;;;;4848368;29;20567;-94
2023/09/23 00:35:36;;;;;;;16.75;11.55;;;18.00;79.20;;;;;;4848631;29;20064;-94
2023/09/23 00:38:07;;;;;;;18.27;11.40;;;18.10;78.70;;;;;;4848989;29;20059;-94
2023/09/23 00:40:38;;;;;;;15.65;10.63;;;18.10;78.80;;;;;;4865286;29;20074;-95
2023/09/23 00:43:11;;;;;;;17.83;10.85;;;18.00;78.40;;;;;;4849144;29;20121;-94
2023/09/23 00:45:48;;;;;;;14.17;8.93;;;18.00;78.50;;;;;;4865660;29;20392;-94
2023/09/23 00:48:20;;;;;;;12.65;8.93;;;18.10;78.60;;;;;;4850069;29;20103;-93
2023/09/23 00:50:51;;;;;;;9.55;6.20;;;18.10;78.40;;;;;;4848720;29;20056;-95
2023/09/23 00:53:20;;;;;;;8.45;5.78;;;18.00;78.00;;;;;;4849670;29;20053;-94
2023/09/23 00:55:52;;;;;;;9.35;6.38;;;17.90;78.20;;;;;;4849679;29;20086;-93
2023/09/23 00:58:23;;;;;;;9.20;6.03;;;17.90;78.50;;;;;;4849207;29;20046;-92
2023/09/23 01:00:51;;;;;;;9.20;6.05;;;17.90;78.50;;;;;;4847973;29;20050;-94
2023/09/23 01:03:19;;;;;;;12.73;6.30;;;17.90;78.50;;;;;;4858735;29;20082;-95
2023/09/23 01:05:58;;;;;;;10.05;5.57;;;18.00;78.20;;;;;;4855889;29;20050;-94
2023/09/23 01:08:25;;;;;;;8.13;4.97;;;17.90;78.50;;;;;;4868023;29;20056;-95
2023/09/23 01:10:53;;;;;;;9.63;5.87;;;17.90;78.50;;;;;;4852854;29;20508;-94
2023/09/23 01:13:24;;;;;;;10.85;6.30;;;17.90;78.70;;;;;;4864415;29;20052;-94
2023/09/23 01:15:52;;;;;;;11.15;6.80;;;17.90;78.70;;;;;;4847569;29;20071;-95
2023/09/23 01:18:20;;;;;;;9.65;6.13;;;17.90;78.80;;;;;;4848095;29;20055;-95
2023/09/23 01:20:51;;;;;;;9.02;5.68;;;17.80;78.90;;;;;;4848817;29;20053;-94
2023/09/23 01:23:18;;;;;;;9.77;6.47;;;17.60;79.20;;;;;;4849067;29;20555;-96
2023/09/23 01:25:46;;;;;;;12.60;7.03;;;17.60;79.60;;;;;;4847675;29;20049;-95
2023/09/23 01:28:13;;;;;;;11.02;6.82;;;17.80;79.40;;;;;;4862243;29;20061;-95
2023/09/23 01:30:43;;;;;;;11.90;7.43;;;17.70;78.90;;;;;;4847431;29;20049;-94
2023/09/23 01:33:12;;;;;;;10.45;6.70;;;17.60;79.40;;;;;;4847029;29;20060;-95
2023/09/23 01:35:41;;;;;;;12.33;6.87;;;17.50;79.50;;;;;;4862801;29;20050;-95
2023/09/23 01:38:08;;;;;;;10.57;6.60;;;17.50;79.60;;;;;;4862239;29;20069;-94
2023/09/23 01:40:39;;;;;;;11.15;6.93;;;17.60;79.80;;;;;;4847148;29;20504;-93
2023/09/23 01:43:10;;;;;;;11.13;7.32;;;17.60;79.60;;;;;;4862249;29;20042;-94
2023/09/23 01:45:38;;;;;;;12.30;7.43;;;17.50;79.60;;;;;;4848028;29;20042;-94
2023/09/23 01:48:07;;;;;;;10.87;6.50;;;17.50;79.90;;;;;;4847920;29;20046;-93
2023/09/23 01:50:34;;;;;;;12.75;7.57;;;17.60;79.60;;;;;;4862632;29;20496;-93
2023/09/23 01:53:04;;;;;;;11.27;7.32;;;17.60;79.90;;;;;;4848338;29;20042;-95
2023/09/23 01:55:32;;;;;;;11.45;7.13;;;17.60;79.60;;;;;;4846730;29;20049;-94
2023/09/23 01:58:01;;;;;;;11.40;6.78;;;17.70;79.40;;;;;;4847283;29;20064;-94
2023/09/23 02:00:32;;;;;;;10.87;5.80;;;17.70;79.00;;;;;;4847516;29;20045;-94
2023/09/23 02:02:59;;;;;;;10.95;7.07;;;17.60;78.60;;;;;;4862064;29;20148;-94
2023/09/23 02:05:29;;;;;;;13.10;7.22;;;17.70;78.80;;;;;;4847076;29;20122;-94
2023/09/23 02:08:01;;;;;;;10.40;6.18;;;17.60;79.20;;;;;;4862005;29;20045;-95
2023/09/23 02:10:30;;;;;;;9.55;6.25;;;17.60;78.80;;;;;;4862400;29;20114;-95
2023/09/23 02:12:57;;;;;;;10.30;6.20;;;17.60;78.50;;;;;;4846985;29;20045;-94
2023/09/23 02:15:25;;;;;;;8.95;5.07;;;17.70;78.50;;;;;;4861772;29;20227;-93
2023/09/23 02:17:53;;;;;;;8.63;5.00;;;17.70;78.10;;;;;;4846860;29;20053;-93
2023/09/23 02:20:23;;;;;;;10.95;6.05;;;17.70;78.30;;;;;;4846663;29;20053;-94
2023/09/23 02:22:53;;;;;;;8.68;5.55;;;17.80;78.40;;;;;;4846690;29;20045;-93
2023/09/23 02:25:27;;;;;;;9.57;5.20;;;17.80;78.30;;;;;;4846731;29;20507;-94
2023/09/23 02:27:57;;;;;;;10.20;5.88;;;17.80;78.20;;;;;;4846622;29;20515;-94
2023/09/23 02:30:25;;;;;;;8.95;5.40;;;17.80;78.70;;;;;;4846404;29;20046;-94
2023/09/23 02:32:53;;;;;;;8.38;5.18;;;17.80;78.70;;;;;;4846602;29;20584;-95
2023/09/23 02:35:20;;;;;;;10.57;6.10;;;17.80;78.50;;;;;;4848901;29;20140;-95
2023/09/23 02:37:48;;;;;;;8.00;4.80;;;17.80;78.40;;;;;;4865013;29;20053;-95
2023/09/23 02:40:17;;;;;;;8.75;5.10;;;17.80;78.10;;;;;;4847223;29;20515;-94
2023/09/23 02:42:53;;;;;;;9.50;5.45;;;17.80;78.40;;;;;;4846519;29;20056;-93
2023/09/23 02:45:22;;;;;;;7.63;4.82;;;17.80;78.90;;;;;;4861495;29;20057;-94
2023/09/23 02:47:50;;;;;;;9.02;4.88;;;17.80;78.40;;;;;;4846334;29;20042;-94
2023/09/23 02:50:17;;;;;;;7.77;4.83;;;17.90;77.90;;;;;;4846200;29;20073;-95
2023/09/23 02:52:46;;;;;;;7.47;4.30;;;17.90;78.00;;;;;;4846075;29;20098;-95
2023/09/23 02:55:19;;;;;;;8.25;5.03;;;17.90;77.70;;;;;;4846205;29;20074;-94
2023/09/23 02:57:52;;;;;;;7.65;4.72;;;17.90;77.60;;;;;;4846240;29;20088;-94
2023/09/23 03:00:22;;;;;;;8.65;5.05;;;17.90;77.80;;;;;;4861864;29;20101;-94
2023/09/23 03:02:55;;;;;;;8.97;4.97;;;17.80;78.00;;;;;;4861629;29;20148;-94
2023/09/23 03:05:31;;;;;;;7.78;4.70;;;17.80;78.30;;;;;;4846800;29;20053;-95
2023/09/23 03:08:00;;;;;;;7.47;4.20;;;17.80;78.40;;;;;;4846594;29;20046;-93
2023/09/23 03:10:39;;;;;;;7.40;3.92;;;17.80;78.50;;;;;;4846134;29;20161;-94
2023/09/23 03:13:11;;;;;;;6.95;4.03;;;17.80;78.20;;;;;;4846616;29;20041;-94
2023/09/23 03:15:50;;;;;;;7.10;4.07;;;17.90;78.00;;;;;;4846122;29;20140;-95
2023/09/23 03:18:27;;;;;;;7.43;3.83;;;17.90;77.70;;;;;;4846163;29;20065;-94
2023/09/23 03:20:56;;;;;;;8.77;4.25;;;17.90;77.70;;;;;;4846460;29;20564;-94
2023/09/23 03:23:23;;;;;;;8.00;4.43;;;17.80;77.90;;;;;;4845883;29;20500;-94
2023/09/23 03:25:52;;;;;;;7.85;4.55;;;17.80;78.00;;;;;;4846145;29;20512;-94
2023/09/23 03:28:19;;;;;;;6.90;3.57;;;17.70;78.10;;;;;;4846236;29;20111;-94
2023/09/23 03:30:49;;;;;;;9.73;4.50;;;17.70;78.40;;;;;;4847082;29;20049;-93
2023/09/23 03:33:21;;;;;;;7.05;4.07;;;17.60;78.50;;;;;;4849848;29;20141;-93
2023/09/23 03:35:49;;;;;;;8.35;4.47;;;17.70;78.60;;;;;;4849294;29;20504;-94
2023/09/23 03:38:17;;;;;;;7.50;4.15;;;17.70;78.50;;;;;;4849616;29;20136;-94
2023/09/23 03:40:52;;;;;;;8.37;3.80;;;17.80;78.60;;;;;;4849898;29;20090;-93
2023/09/23 03:43:22;;;;;;;9.25;4.70;;;17.70;78.40;;;;;;4850924;29;20563;-95
2023/09/23 03:45:49;;;;;;;7.57;4.40;;;17.60;78.50;;;;;;4849317;29;20057;-94
2023/09/23 03:48:17;;;;;;;8.07;4.15;;;17.60;78.40;;;;;;4848792;29;20136;-95
2023/09/23 03:50:44;;;;;;;7.45;4.30;;;17.50;78.50;;;;;;4848589;29;20049;-93
2023/09/23 03:53:12;;;;;;;7.93;4.60;;;17.50;78.70;;;;;;4848839;29;20041;-94
2023/09/23 03:55:40;;;;;;;8.90;5.15;;;17.50;79.20;;;;;;4848844;29;20045;-93
2023/09/23 03:58:07;;;;;;;9.75;5.30;;;17.40;79.60;;;;;;4848636;29;20050;-95
2023/09/23 04:00:34;;;;;;;8.48;4.68;;;17.50;79.50;;;;;;4849096;29;20464;-95
2023/09/23 04:03:02;;;;;;;9.70;5.45;;;17.50;79.50;;;;;;4848407;29;20125;-93
2023/09/23 04:05:31;;;;;;;8.73;5.43;;;17.50;79.50;;;;;;4848248;29;20148;-93
2023/09/23 04:07:58;;;;;;;9.18;5.15;;;17.50;79.50;;;;;;4848170;29;20060;-94
2023/09/23 04:10:27;;;;;;;8.38;5.22;;;17.50;79.30;;;;;;4848384;29;20060;-94
2023/09/23 04:12:55;;;;;;;9.20;5.15;;;17.40;79.50;;;;;;4848639;29;20045;-94
2023/09/23 04:15:24;;;;;;;8.70;4.75;;;17.40;79.80;;;;;;4847935;29;20060;-95
2023/09/23 04:17:52;;;;;;;9.13;5.13;;;17.40;79.70;;;;;;4848307;29;20049;-94
2023/09/23 04:20:19;;;;;;;9.10;5.40;;;17.50;80.00;;;;;;4848119;29;20069;-95
2023/09/23 04:22:46;;;;;;;10.32;5.18;;;17.40;80.20;;;;;;4863580;29;20045;-95
2023/09/23 04:25:14;;;;;;;9.52;5.32;;;17.40;80.30;;;;;;4848166;29;20550;-95
2023/09/23 04:27:41;;;;;;;8.05;4.97;;;17.40;80.30;;;;;;4863808;29;20053;-96
2023/09/23 04:30:11;;;;;;;8.67;4.80;;;17.40;80.20;;;;;;4849016;29;20170;-95
2023/09/23 04:32:40;;;;;;;7.55;4.28;;;17.40;80.10;;;;;;4848224;29;20140;-95
2023/09/23 04:35:13;;;;;;;8.88;4.90;;;17.40;79.90;;;;;;4848426;29;20059;-94
2023/09/23 04:37:41;;;;;;;7.70;4.30;;;17.40;79.80;;;;;;4851734;29;20065;-95
2023/09/23 04:40:10;;;;;;;8.65;3.58;;;17.40;79.40;;;;;;4851623;29;20059;-95
2023/09/23 04:42:39;;;;;;;7.60;3.90;;;17.40;79.40;;;;;;4865818;29;20488;-95
2023/09/23 04:45:10;;;;;;;8.07;4.35;;;17.40;79.40;;;;;;4848639;29;20049;-94
2023/09/23 04:47:39;;;;;;;7.70;4.03;;;17.40;79.30;;;;;;4850972;29;20427;-95
2023/09/23 04:50:15;;;;;;;9.15;4.95;;;17.40;79.20;;;;;;4852518;29;20500;-95
2023/09/23 04:52:44;;;;;;;8.63;4.65;;;17.50;79.40;;;;;;4852083;29;20496;-95
2023/09/23 04:55:11;;;;;;;8.70;4.77;;;17.40;79.60;;;;;;4864908;29;20077;-94
2023/09/23 04:57:38;;;;;;;10.18;5.25;;;17.40;79.70;;;;;;4849870;29;20096;-96
2023/09/23 05:00:09;;;;;;;8.13;4.72;;;17.30;80.10;;;;;;4847525;29;21183;-94
2023/09/23 05:02:40;;;;;;;9.52;5.03;;;17.30;80.20;;;;;;4847807;29;20495;-95
2023/09/23 05:05:09;;;;;;;6.75;3.72;;;17.30;79.80;;;;;;4847594;29;20049;-94
2023/09/23 05:07:37;;;;;;;8.33;4.23;;;17.30;79.90;;;;;;4847471;29;20530;-93
2023/09/23 05:10:07;;;;;;;8.50;4.38;;;17.30;80.10;;;;;;4847069;29;20144;-94
2023/09/23 05:12:35;;;;;;;9.85;5.10;;;17.30;80.30;;;;;;4847859;29;20111;-94
2023/09/23 05:15:05;;;;;;;8.48;4.50;;;17.30;80.30;;;;;;4862895;29;20045;-95
2023/09/23 05:17:32;;;;;;;8.70;4.80;;;17.40;80.30;;;;;;4847544;29;20054;-95
2023/09/23 05:19:59;;;;;;;8.60;5.20;;;17.40;80.10;;;;;;4847862;29;20576;-95
2023/09/23 05:22:27;;;;;;;9.02;4.70;;;17.40;79.80;;;;;;4847261;29;20148;-94
2023/09/23 05:24:57;;;;;;;8.20;4.35;;;17.40;79.80;;;;;;4846957;29;20060;-95
2023/09/23 05:27:25;;;;;;;10.68;5.72;;;17.50;79.90;;;;;;4861784;29;20056;-95
2023/09/23 05:29:53;;;;;;;8.73;5.25;;;17.50;79.80;;;;;;4861924;29;20136;-95
2023/09/23 05:32:20;;;;;;;9.60;5.30;;;17.50;79.70;;;;;;4846974;29;20049;-95
2023/09/23 05:34:51;;;;;;;10.57;5.80;;;17.40;79.90;;;;;;4847524;29;20087;-95
2023/09/23 05:37:20;;;;;;;10.30;5.65;;;17.40;80.10;;;;;;4848255;29;20086;-95
2023/09/23 05:39:48;;;;;;;9.90;5.70;;;17.50;80.00;;;;;;4829027;29;20065;-96
2023/09/23 05:42:17;;;;;;;10.15;5.63;;;17.50;80.00;;;;;;4828905;29;20046;-96
2023/09/23 05:44:46;;;;;;;10.50;5.57;;;17.50;80.10;;;;;;4828493;29;20145;-95
2023/09/23 05:47:13;;;;;;;11.48;5.90;;;17.40;80.40;;;;;;4828783;29;20467;-93
2023/09/23 05:49:42;;;;;;;9.75;5.50;;;17.30;80.30;;;;;;4828546;29;20061;-95
2023/09/23 05:52:14;;;;;;;9.60;5.28;;;17.40;80.10;;;;;;4829167;29;20045;-95
2023/09/23 05:54:42;;;;;;;10.18;5.53;;;17.50;80.10;;;;;;4828128;29;20073;-94
2023/09/23 05:57:09;;;;;;;9.20;5.03;;;17.50;80.00;;;;;;4828403;29;20497;-94
2023/09/23 05:59:36;;;;;;;9.93;5.55;;;17.50;79.90;;;;;;4828510;29;20049;-95
2023/09/23 06:02:08;;;;;;;9.00;5.50;;;17.50;79.90;;;;;;4828475;29;20049;-95
2023/09/23 06:04:38;;;;;;;9.48;5.15;;;17.40;79.90;;;;;;4829807;29;20079;-95
2023/09/23 06:07:05;;;;;;;9.65;5.25;;;17.50;80.00;;;;;;4828673;29;20052;-94
2023/09/23 06:09:32;;;;;;;10.17;6.07;;;17.40;80.10;;;;;;4828900;29;20118;-94
2023/09/23 06:12:01;;;;;;;10.48;5.60;;;17.30;80.20;;;;;;4828448;29;20046;-95
2023/09/23 06:14:29;;;;;;;12.40;6.38;;;17.40;80.60;;;;;;4828356;29;20054;-94
2023/09/23 06:16:56;;;;;;;10.10;5.43;;;17.40;80.50;;;;;;4829261;29;20565;-94
2023/09/23 06:19:27;;;;;;;11.13;5.82;;;17.40;80.40;;;;;;4828337;29;20053;-94
2023/09/23 06:21:58;;;;;;;10.63;5.70;;;17.50;80.50;;;;;;4828530;29;20122;-96
2023/09/23 06:24:35;;;;;;;10.82;5.80;;;17.50;80.00;;;;;;4842714;29;20152;-96
2023/09/23 06:27:03;;;;;;;10.80;6.05;;;17.50;80.10;;;;;;4843163;29;20528;-95
2023/09/23 06:29:35;;;;;;;11.52;6.13;;;17.60;80.10;;;;;;4843934;29;20585;-94
2023/09/23 06:32:04;;;;;;;10.63;5.97;;;17.60;79.80;;;;;;4828120;29;20573;-94
2023/09/23 06:34:31;;;;;;;9.00;5.00;;;17.50;80.20;;;;;;4828022;29;20072;-95
2023/09/23 06:36:58;;;;;;;10.68;5.57;;;17.50;80.40;;;;;;4827897;29;20057;-94
2023/09/23 06:39:25;;;;;;;10.70;5.50;;;17.40;80.30;;;;;;4827786;29;20129;-95
2023/09/23 06:41:53;;;;;;;11.48;5.70;;;17.40;80.60;;;;;;4828091;29;20042;-95
2023/09/23 06:44:20;;;;;;;9.50;5.28;;;17.40;80.70;;;;;;4827754;29;20114;-95
2023/09/23 06:46:52;;;;;;;9.83;5.43;;;17.30;80.80;;;;;;4831024;29;20053;-96
2023/09/23 06:49:21;;;;;;;11.32;5.75;;;17.30;80.60;;;;;;4851047;29;20061;-95
2023/09/23 06:51:48;;;;;;;12.18;5.97;;;17.20;80.70;;;;;;4832159;29;20071;-95
2023/09/23 06:54:15;;;;;;;12.85;6.18;;;17.10;81.40;;;;;;4848083;29;20046;-95
2023/09/23 06:56:43;;;;;;;14.07;6.90;;;17.10;81.30;;;;;;4829115;29;20420;-93
2023/09/23 06:59:10;;;;;;;14.40;7.23;;;17.20;81.20;;;;;;4827716;29;20054;-94
2023/09/23 07:01:37;;;;;;;14.32;7.28;;;17.30;81.10;;;;;;4842938;29;20061;-95
2023/09/23 07:04:05;;;;;;;14.70;7.10;;;17.10;81.40;;;;;;4828413;29;20053;-93
2023/09/23 07:06:33;;;;;;;13.48;7.22;;;17.20;81.60;;;;;;4829557;29;20054;-94
2023/09/23 07:09:00;;;;;;;15.68;7.82;;;17.20;81.50;;;;;;4830965;29;20050;-93
2023/09/23 07:11:27;;;;;;;15.07;7.33;;;17.20;81.50;;;;;;4848464;29;20531;-93
2023/09/23 07:13:55;;;;;;;14.90;7.38;;;17.10;81.70;;;;;;4834775;29;20509;-93
2023/09/23 07:16:22;;;;;;;17.25;7.93;;;17.20;81.40;;;;;;4832649;29;20054;-95
2023/09/23 07:18:50;;;;;;;13.88;7.63;;;17.20;81.50;;;;;;4834387;29;20577;-94
2023/09/23 07:21:17;;;;;;;15.57;8.20;;;17.10;81.70;;;;;;4832013;29;20061;-92
2023/09/23 07:23:44;;;;;;;14.63;7.33;;;17.10;81.90;;;;;;4830858;29;20473;-91
2023/09/23 07:26:21;;;;;;;14.48;7.38;;;17.10;82.00;;;;;;4830624;29;20050;-93
2023/09/23 07:28:51;;;;;;;14.95;7.15;;;17.10;82.10;;;;;;4830206;29;20055;-93
2023/09/23 07:31:19;;;;;;;13.57;6.22;;;17.20;82.10;;;;;;4830492;29;20073;-95
2023/09/23 07:33:46;;;;;;;9.15;4.20;;;17.10;81.90;;;;;;4830480;29;20412;-91
2023/09/23 07:36:14;;;;;;;9.60;4.37;;;17.10;81.70;;;;;;4830393;29;20046;-92
2023/09/23 07:38:41;;;;;;;8.55;3.80;;;17.10;81.40;;;;;;4829843;29;20068;-92
2023/09/23 07:41:26;;;;;;;10.82;4.15;;;17.20;81.30;;;;;;4864017;29;20056;-94
2023/09/23 07:43:54;;;;;;;7.50;3.67;;;17.20;81.40;;;;;;4864984;29;20182;-91
2023/09/23 07:46:21;;;;;;;6.20;2.67;;;17.20;81.20;;;;;;4863449;29;20114;-90
2023/09/23 07:48:57;;;;;;;5.37;2.47;;;17.30;81.00;;;;;;4863754;29;20052;-94
2023/09/23 07:51:25;;;;;;;6.50;2.88;;;17.20;80.50;;;;;;4866172;29;20530;-94
2023/09/23 07:53:53;;;;;;;6.35;3.10;;;17.10;80.80;;;;;;4866588;29;20140;-94
2023/09/23 07:56:20;;;;;;;7.03;3.08;;;17.10;81.10;;;;;;4865362;29;20492;-91
2023/09/23 07:58:47;;;;;;;6.53;2.72;;;17.10;81.40;;;;;;4863655;29;20049;-93
2023/09/23 08:01:14;;;;;;;7.20;3.10;;;17.10;81.50;;;;;;4863470;29;20061;-91
2023/09/23 08:03:41;;;;;;;6.10;2.63;;;17.20;81.20;;;;;;4863644;29;20098;-92
2023/09/23 08:06:08;;;;;;;6.20;3.05;;;17.10;80.90;;;;;;4848695;29;20061;-93
2023/09/23 08:08:35;;;;;;;6.07;2.83;;;17.10;81.10;;;;;;4864145;29;20054;-92
2023/09/23 08:11:06;;;;;;;6.57;2.70;;;17.20;81.00;;;;;;4864485;29;20124;-95
2023/09/23 08:13:33;;;;;;;7.47;3.23;;;17.20;80.80;;;;;;4866232;29;20049;-94
2023/09/23 08:16:00;;;;;;;6.18;2.97;;;17.20;81.40;;;;;;4851005;29;20096;-93
2023/09/23 08:18:29;;;;;;;4.53;1.90;;;17.30;81.50;;;;;;4864370;29;20604;-96
2023/09/23 08:20:57;;;;;;;7.05;2.30;;;17.30;80.90;;;;;;4849325;29;20096;-95
2023/09/23 08:23:31;;;;;;;13.38;2.10;;;17.20;80.80;;;;;;4856394;29;20061;-96
2023/09/23 08:25:58;;;;;;;4.57;1.70;;;17.30;80.70;;;;;;4860056;29;20045;-96
2023/09/23 08:28:26;;;;;;;3.22;1.42;;;17.20;80.40;;;;;;4863804;29;20081;-96
2023/09/23 08:30:53;;;;;;;3.83;1.83;;;17.20;80.20;;;;;;4864180;29;20042;-96
2023/09/23 08:33:22;;;;;;;4.72;1.70;;;17.30;80.00;;;;;;4848648;29;20148;-95
2023/09/23 08:35:51;;;;;;;5.20;1.45;;;17.30;79.70;;;;;;4867596;29;20563;-96
2023/09/23 08:38:18;;;;;;;4.63;1.37;;;17.30;79.60;;;;;;4857644;29;20065;-96
2023/09/23 08:40:45;;;;;;;3.95;1.52;;;17.20;79.10;;;;;;4869359;29;20046;-95
2023/09/23 08:43:13;;;;;;;3.78;1.63;;;17.30;78.80;;;;;;4856145;29;20512;-94
2023/09/23 08:45:43;;;;;;;4.00;1.45;;;17.30;79.30;;;;;;4852511;29;20508;-93
2023/09/23 08:48:11;;;;;;;3.80;1.20;;;17.30;79.60;;;;;;4852621;29;20098;-94
2023/09/23 08:50:43;;;;;;;3.33;1.20;;;17.30;79.10;;;;;;4847701;29;20062;-93
2023/09/23 08:53:13;;;;;;;4.25;1.88;;;17.50;79.20;;;;;;4865247;29;20060;-94
2023/09/23 08:55:44;;;;;;;3.22;1.50;;;17.50;79.40;;;;;;4852977;29;20592;-92
2023/09/23 08:58:14;;;;;;;5.22;1.73;;;17.40;78.60;;;;;;4850621;29;20064;-91
2023/09/23 09:00:46;;;;;;;3.92;1.60;;;17.30;78.80;;;;;;4862608;29;20496;-92
2023/09/23 09:03:13;;;;;;;5.17;1.47;;;17.30;79.30;;;;;;4847451;29;20064;-91
2023/09/23 09:05:42;;;;;;;3.17;1.25;;;17.10;79.00;;;;;;4862309;29;20049;-93
2023/09/23 09:08:10;;;;;;;4.63;1.55;;;17.00;78.00;;;;;;4862117;29;20496;-93
2023/09/23 09:10:37;;;;;;;4.78;1.75;;;17.10;79.00;;;;;;4847095;29;20464;-93
2023/09/23 09:13:05;;;;;;;4.50;1.40;;;17.00;79.10;;;;;;4847123;29;20045;-92
2023/09/23 09:15:37;;;;;;;3.73;1.40;;;17.00;78.30;;;;;;4846767;29;20049;-92
2023/09/23 09:18:05;;;;;;;4.32;1.45;;;17.00;78.50;;;;;;4862034;29;20053;-92
2023/09/23 09:20:33;;;;;;;4.35;1.48;;;17.10;78.40;;;;;;4847448;29;20412;-94
2023/09/23 09:29:13;;;;;;;5.30;1.50;;;17.20;79.10;;;;;;5201057;23;20076;-92
2023/09/23 09:31:44;;;;;;;6.03;1.90;;;17.10;79.60;;;;;;4861712;29;20084;-88
2023/09/23 09:34:13;;;;;;;6.28;2.42;;;17.10;79.70;;;;;;4853470;29;20414;-90
2023/09/23 09:36:40;;;;;;;4.72;2.00;;;17.10;80.30;;;;;;4838212;29;20050;-90
2023/09/23 09:39:08;;;;;;;6.25;2.58;;;17.00;80.40;;;;;;4845630;29;20497;-92
2023/09/23 09:41:51;;;;;;;6.33;2.83;;;17.00;80.40;;;;;;4846264;29;20049;-93
2023/09/23 09:44:23;;;;;;;5.85;2.20;;;17.10;80.10;;;;;;4846262;29;20045;-93
2023/09/23 09:46:53;;;;;;;4.95;2.33;;;17.10;80.10;;;;;;4861454;29;20097;-92
2023/09/23 09:49:21;;;;;;;5.70;2.10;;;17.10;80.20;;;;;;4861405;29;20497;-93
2023/09/23 09:51:49;;;;;;;5.47;2.00;;;17.10;79.60;;;;;;4846196;29;20223;-93
2023/09/23 09:54:21;;;;;;;5.17;1.70;;;17.10;79.80;;;;;;4861237;29;20049;-92
2023/09/23 09:56:51;;;;;;;5.28;1.92;;;17.20;79.70;;;;;;4846128;29;20081;-92
2023/09/23 09:59:29;;;;;;;7.10;3.00;;;17.20;79.60;;;;;;4861321;29;20469;-92
2023/09/23 10:01:58;;;;;;;5.72;2.00;;;17.20;79.60;;;;;;4845859;29;20089;-93
2023/09/23 10:04:33;;;;;;;6.43;2.67;;;17.20;79.50;;;;;;4845894;29;20145;-93
2023/09/23 10:07:05;;;;;;;4.87;1.97;;;17.30;79.90;;;;;;4861178;29;20069;-92
2023/09/23 10:09:33;;;;;;;5.90;2.08;;;17.20;79.20;;;;;;4846168;29;20053;-93
2023/09/23 10:12:04;;;;;;;5.18;2.10;;;17.20;79.30;;;;;;4846324;29;20098;-92
2023/09/23 10:14:31;;;;;;;5.00;2.22;;;17.20;79.40;;;;;;4859258;29;20145;-92
2023/09/23 10:17:01;;;;;;;5.32;2.20;;;17.20;79.10;;;;;;4831703;29;20037;-89
2023/09/23 10:19:33;;;;;;;5.10;1.90;;;17.20;79.60;;;;;;4834730;29;20057;-90
2023/09/23 10:22:20;;;;;;;5.45;1.70;;;17.20;79.90;;;;;;4836919;29;20076;-93
2023/09/23 10:25:03;;;;;;;4.65;2.10;;;17.20;79.90;;;;;;4846475;29;20050;-89
2023/09/23 10:27:31;;;;;;;5.68;1.60;;;17.10;79.00;;;;;;4855420;29;20054;-91
2023/09/23 10:29:59;;;;;;;5.32;1.50;;;17.00;78.60;;;;;;4836205;29;20076;-93
2023/09/23 10:32:26;;;;;;;4.33;1.67;;;16.90;79.00;;;;;;4855563;29;20057;-91
2023/09/23 10:34:58;;;;;;;3.30;1.27;;;16.90;79.60;;;;;;4837293;29;20042;-90
2023/09/23 10:37:32;;;;;;;3.38;1.30;;;17.00;79.50;;;;;;4854524;29;20442;-89
2023/09/23 10:40:14;;;;;;;4.05;1.45;;;17.00;78.70;;;;;;4858396;29;20514;-90
2023/09/23 10:42:41;;;;;;;4.03;1.65;;;17.00;79.10;;;;;;4865231;29;20049;-90
2023/09/23 10:45:10;;;;;;;4.63;1.80;;;17.00;79.50;;;;;;4864880;29;20049;-90
2023/09/23 10:47:38;;;;;;;4.90;1.77;;;17.10;80.00;;;;;;4849389;29;20061;-92
2023/09/23 10:50:07;;;;;;;5.82;1.70;;;17.10;79.80;;;;;;4864913;29;20053;-89
2023/09/23 10:52:34;;;;;;;3.85;1.77;;;17.10;78.90;;;;;;4864734;29;20109;-90
2023/09/23 10:55:02;;;;;;;4.45;1.83;;;17.20;79.20;;;;;;4849749;29;20060;-90
2023/09/23 10:57:30;;;;;;;3.93;1.50;;;17.30;78.60;;;;;;4866135;29;20136;-93
2023/09/23 11:09:32;;;;;;;5.32;2.00;;;17.10;78.80;;;;;;4829087;29;20053;-90
2023/09/23 11:12:13;;;;;;;5.22;2.10;;;17.10;80.00;;;;;;4802342;29;20054;-93
2023/09/23 11:14:45;;;;;;;7.00;2.17;;;17.20;80.30;;;;;;4827618;29;20051;-94
2023/09/23 11:17:30;;;;;;;7.75;2.40;;;17.30;80.40;;;;;;4852278;29;20153;-92
2023/09/23 11:20:07;;;;;;;6.03;2.30;;;17.30;79.90;;;;;;4842688;29;20050;-92
2023/09/23 11:27:22;;;;;;;8.15;3.10;;;17.50;79.40;;;;;;4870945;29;20049;-90
2023/09/23 11:34:25;;;;;;;6.63;2.63;;;17.30;79.70;;;;;;4868435;29;20028;-91
2023/09/23 11:36:52;;;;;;;5.78;2.70;;;17.20;79.80;;;;;;4852276;29;20049;-93
2023/09/23 11:39:19;;;;;;;7.50;3.03;;;17.20;80.00;;;;;;4849211;29;20450;-91
2023/09/23 11:41:47;;;;;;;6.10;2.78;;;17.20;80.40;;;;;;4834715;29;20476;-92
2023/09/23 11:44:14;;;;;;;7.23;2.83;;;17.20;80.20;;;;;;4834170;29;20042;-89
2023/09/23 11:46:42;;;;;;;8.02;2.65;;;17.20;80.10;;;;;;4840228;29;20050;-92
2023/09/23 11:49:09;;;;;;;5.97;2.50;;;17.10;80.10;;;;;;4837565;29;20046;-89
2023/09/23 11:51:39;;;;;;;5.63;2.10;;;17.00;80.40;;;;;;4848363;29;20144;-93
2023/09/23 11:54:08;;;;;;;7.00;3.03;;;17.00;80.70;;;;;;4830120;29;20052;-91
2023/09/23 11:56:35;;;;;;;7.00;2.40;;;17.00;80.70;;;;;;4845142;29;20049;-93
2023/09/23 11:59:02;;;;;;;6.75;2.85;;;17.10;80.60;;;;;;4845864;29;20050;-92
2023/09/23 12:01:35;;;;;;;7.80;2.72;;;17.10;80.50;;;;;;4859727;29;20054;-91
2023/09/23 12:04:02;;;;;;;6.95;2.35;;;17.10;80.50;;;;;;4859755;29;20057;-93
2023/09/23 12:06:34;;;;;;;7.20;2.92;;;17.10;80.30;;;;;;4849497;29;20161;-92
2023/09/23 12:09:03;;;;;;;6.60;2.10;;;17.10;80.70;;;;;;4861631;29;20128;-95
2023/09/23 12:28:50;;;;;;;4.93;1.92;;;16.90;80.90;;;;;;5048062;23;20048;-91
2023/09/23 12:31:18;;;;;;;5.50;2.30;;;17.00;81.20;;;;;;4871756;29;20053;-93
2023/09/23 12:33:47;;;;;;;4.80;1.80;;;17.00;81.00;;;;;;4869223;29;20491;-92
2023/09/23 12:36:14;;;;;;;5.30;1.88;;;17.00;80.80;;;;;;4882229;29;20053;-92
2023/09/23 12:38:46;;;;;;;5.87;2.20;;;17.00;80.60;;;;;;4867276;29;20499;-89
2023/09/23 12:41:14;;;;;;;6.15;2.38;;;17.00;80.90;;;;;;4865875;29;20049;-89
2023/09/23 12:43:41;;;;;;;5.22;2.40;;;17.00;80.90;;;;;;4866159;29;20117;-89
2023/09/23 12:46:08;;;;;;;4.63;1.95;;;17.00;81.30;;;;;;4865553;29;20059;-89
2023/09/23 12:48:36;;;;;;;5.47;2.15;;;17.10;81.00;;;;;;4865632;29;20512;-89
2023/09/23 12:51:03;;;;;;;5.63;2.30;;;17.10;80.20;;;;;;4881250;29;20053;-89
2023/09/23 12:53:30;;;;;;;6.15;2.28;;;17.10;80.20;;;;;;4880956;29;20139;-89
2023/09/23 12:55:57;;;;;;;6.50;2.55;;;17.10;80.40;;;;;;4880960;29;20049;-89
2023/09/23 12:58:24;;;;;;;6.15;3.13;;;17.10;80.10;;;;;;4865511;29;20060;-89
2023/09/23 13:00:51;;;;;;;7.03;3.15;;;17.20;80.10;;;;;;4865453;29;20060;-90
2023/09/23 13:03:18;;;;;;;7.87;3.20;;;17.10;79.90;;;;;;4879909;29;20045;-88
2023/09/23 13:05:45;;;;;;;6.40;2.97;;;17.10;79.90;;;;;;4865320;29;20053;-87
2023/09/23 13:08:13;;;;;;;7.70;3.53;;;17.20;80.00;;;;;;4880894;29;20045;-89
2023/09/23 13:10:41;;;;;;;7.35;3.63;;;17.10;80.10;;;;;;4865154;29;20055;-88
2023/09/23 13:13:08;;;;;;;7.00;3.10;;;17.10;79.80;;;;;;4880402;29;20048;-88
2023/09/23 13:15:36;;;;;;;7.40;3.50;;;17.10;80.10;;;;;;4862062;29;20045;-88
2023/09/23 13:18:04;;;;;;;7.90;3.58;;;17.10;79.90;;;;;;4861787;29;20819;-88
2023/09/23 13:20:31;;;;;;;8.50;3.72;;;17.00;79.80;;;;;;4846595;29;20453;-88
2023/09/23 13:22:58;;;;;;;7.32;3.50;;;17.10;79.90;;;;;;4873681;29;20503;-88
2023/09/23 13:25:28;;;;;;;7.20;3.70;;;17.20;79.30;;;;;;4876253;29;20060;-89
2023/09/23 13:27:55;;;;;;;7.60;3.67;;;17.10;79.00;;;;;;4860098;29;20068;-91
2023/09/23 13:30:23;;;;;;;7.45;4.03;;;17.10;79.00;;;;;;4847059;29;20492;-87
2023/09/23 13:32:57;;;;;;;8.65;4.50;;;17.10;79.40;;;;;;4864334;29;20112;-93
2023/09/23 13:35:24;;;;;;;7.93;4.30;;;17.20;79.50;;;;;;4861923;29;20041;-87